Time;durP1;ratioP1;P1;durP2;ratioP2;P2;SDS_P1;SDS_P2;PMS_P1;PMS_P2;Temp;Humidity;BMP_temperature;BMP_pressure;BME280_temperature;BME280_humidity;BME280_pressure;Samples;Min_cycle;Max_cycle;Signal;HPM_P1;HPM_P2
2022/07/06 00:01:57;;;;;;;4.45;1.83;;;;;;;;;;5011272;28;20622;-66
2022/07/06 00:04:22;;;;;;;6.45;1.90;;;;;;;;;;5018302;28;20175;-66
2022/07/06 00:06:48;;;;;;;4.38;1.98;;;;;;;;;;5038165;28;20182;-66
2022/07/06 00:09:13;;;;;;;3.42;1.85;;;;;;;;;;5038038;28;20197;-66
2022/07/06 00:11:38;;;;;;;5.43;1.80;;;;;;;;;;5020519;28;20201;-66
2022/07/06 00:14:04;;;;;;;4.30;1.60;;;;;;;;;;5025276;28;20206;-66
2022/07/06 00:16:30;;;;;;;4.40;2.00;;;;;;;;;;5029629;28;20301;-66
2022/07/06 00:18:56;;;;;;;2.90;1.70;;;;;;;;;;5019840;28;20246;-66
2022/07/06 00:21:21;;;;;;;4.00;1.77;;;;;;;;;;5025483;28;20209;-67
2022/07/06 00:23:47;;;;;;;3.13;1.95;;;;;;;;;;5026878;28;20613;-66
2022/07/06 00:26:12;;;;;;;4.60;1.92;;;;;;;;;;5027623;28;20664;-66
2022/07/06 00:28:38;;;;;;;6.50;2.15;;;;;;;;;;5031356;28;20225;-66
2022/07/06 00:31:03;;;;;;;3.22;1.90;;;;;;;;;;5029310;28;20292;-66
2022/07/06 00:33:29;;;;;;;5.40;1.90;;;;;;;;;;5035938;28;20227;-66
2022/07/06 00:35:54;;;;;;;4.53;1.80;;;;;;;;;;5035798;28;20225;-66
2022/07/06 00:38:21;;;;;;;4.25;2.10;;;;;;;;;;5023403;28;20619;-66
2022/07/06 00:40:46;;;;;;;4.18;2.20;;;;;;;;;;5025156;28;20557;-66
2022/07/06 00:43:11;;;;;;;9.18;2.20;;;;;;;;;;5029150;28;20179;-66
2022/07/06 00:45:37;;;;;;;4.40;1.92;;;;;;;;;;5020172;28;20198;-66
2022/07/06 00:48:03;;;;;;;6.53;1.83;;;;;;;;;;5035414;28;20177;-66
2022/07/06 00:50:28;;;;;;;5.13;2.03;;;;;;;;;;5033727;28;20188;-66
2022/07/06 00:53:02;;;;;;;4.68;1.65;;;;;;;;;;5028355;28;20186;-66
2022/07/06 00:55:29;;;;;;;4.07;1.52;;;;;;;;;;5026748;28;20182;-66
2022/07/06 00:57:55;;;;;;;4.03;1.80;;;;;;;;;;5044808;28;20649;-66
2022/07/06 01:00:23;;;;;;;5.93;1.80;;;;;;;;;;5028024;28;20733;-66
2022/07/06 01:02:48;;;;;;;3.83;2.00;;;;;;;;;;5039862;28;20190;-66
2022/07/06 01:05:15;;;;;;;4.45;1.80;;;;;;;;;;5023569;28;20197;-66
2022/07/06 01:07:42;;;;;;;5.05;2.00;;;;;;;;;;5024453;28;20193;-66
2022/07/06 01:10:09;;;;;;;4.25;2.00;;;;;;;;;;5024250;28;20662;-66
2022/07/06 01:12:36;;;;;;;6.90;1.70;;;;;;;;;;5027652;28;20182;-66
2022/07/06 01:15:07;;;;;;;6.18;2.88;;;;;;;;;;5020592;28;20188;-66
2022/07/06 01:17:33;;;;;;;5.22;2.22;;;;;;;;;;5020713;28;20738;-66
2022/07/06 01:20:15;;;;;;;4.55;1.73;;;;;;;;;;5018206;28;20221;-67
2022/07/06 01:22:41;;;;;;;5.15;2.53;;;;;;;;;;5032201;28;20192;-66
2022/07/06 01:25:07;;;;;;;2.85;1.92;;;;;;;;;;5015858;28;20181;-66
2022/07/06 01:27:37;;;;;;;5.32;2.38;;;;;;;;;;5023959;28;20234;-65
2022/07/06 01:30:04;;;;;;;2.78;2.42;;;;;;;;;;5021102;28;20186;-65
2022/07/06 01:32:29;;;;;;;5.93;2.10;;;;;;;;;;5027924;28;20735;-67
2022/07/06 01:34:55;;;;;;;5.00;2.08;;;;;;;;;;5021352;28;20226;-66
2022/07/06 01:37:20;;;;;;;2.17;1.80;;;;;;;;;;5017162;28;20653;-66
2022/07/06 01:39:45;;;;;;;3.70;1.85;;;;;;;;;;5028031;28;20273;-66
2022/07/06 01:42:11;;;;;;;6.63;2.10;;;;;;;;;;5023559;28;20174;-67
2022/07/06 01:44:36;;;;;;;4.72;1.95;;;;;;;;;;5021128;28;20217;-66
2022/07/06 01:47:01;;;;;;;4.68;2.20;;;;;;;;;;5017137;28;20190;-66
2022/07/06 01:49:27;;;;;;;6.43;2.30;;;;;;;;;;5028617;28;20197;-66
2022/07/06 01:51:52;;;;;;;3.42;2.05;;;;;;;;;;5025211;28;20552;-66
2022/07/06 01:54:17;;;;;;;7.10;2.10;;;;;;;;;;5021633;28;20201;-66
2022/07/06 01:56:43;;;;;;;3.95;2.20;;;;;;;;;;5022144;28;20557;-67
2022/07/06 01:59:09;;;;;;;2.38;1.60;;;;;;;;;;5031155;28;20261;-66
2022/07/06 02:01:34;;;;;;;5.32;2.08;;;;;;;;;;5013331;28;20206;-66
2022/07/06 02:04:00;;;;;;;4.55;1.70;;;;;;;;;;5011934;28;20187;-66
2022/07/06 02:06:25;;;;;;;4.55;1.77;;;;;;;;;;5035252;28;20182;-65
2022/07/06 02:08:51;;;;;;;7.22;2.00;;;;;;;;;;5025444;28;20209;-67
2022/07/06 02:11:17;;;;;;;4.88;1.70;;;;;;;;;;5019747;28;20229;-66
2022/07/06 02:13:42;;;;;;;7.65;2.00;;;;;;;;;;5030511;28;20209;-66
2022/07/06 02:16:08;;;;;;;2.95;1.65;;;;;;;;;;5020645;28;20635;-66
2022/07/06 02:18:33;;;;;;;2.65;1.70;;;;;;;;;;5023063;28;20194;-66
2022/07/06 02:20:59;;;;;;;4.88;2.03;;;;;;;;;;5036655;28;20280;-67
2022/07/06 02:23:25;;;;;;;3.50;1.88;;;;;;;;;;5033748;28;20186;-66
2022/07/06 02:25:51;;;;;;;3.90;1.67;;;;;;;;;;5011350;28;20313;-66
2022/07/06 02:28:17;;;;;;;5.13;1.73;;;;;;;;;;5017122;28;20305;-65
2022/07/06 02:30:42;;;;;;;5.15;1.30;;;;;;;;;;5032049;28;20189;-66
2022/07/06 02:33:07;;;;;;;2.60;1.25;;;;;;;;;;5026451;28;20877;-65
2022/07/06 02:35:33;;;;;;;2.55;1.30;;;;;;;;;;5028295;28;20638;-66
2022/07/06 02:37:58;;;;;;;6.25;1.50;;;;;;;;;;5029073;28;20610;-66
2022/07/06 02:40:23;;;;;;;5.35;1.55;;;;;;;;;;5036406;28;20641;-66
2022/07/06 02:42:49;;;;;;;7.00;1.20;;;;;;;;;;5037608;28;20433;-66
2022/07/06 02:45:14;;;;;;;5.30;1.38;;;;;;;;;;5034324;28;20196;-66
2022/07/06 02:47:39;;;;;;;5.68;1.20;;;;;;;;;;5018456;28;20186;-66
2022/07/06 02:50:05;;;;;;;3.10;1.60;;;;;;;;;;5016072;28;20566;-66
2022/07/06 02:52:31;;;;;;;4.65;1.45;;;;;;;;;;5016027;28;20566;-67
2022/07/06 02:54:56;;;;;;;3.33;1.55;;;;;;;;;;5020623;28;20182;-66
2022/07/06 02:57:22;;;;;;;2.08;1.15;;;;;;;;;;5033202;28;20221;-66
2022/07/06 02:59:49;;;;;;;4.40;1.23;;;;;;;;;;5023502;28;20219;-66
2022/07/06 03:02:15;;;;;;;2.85;1.23;;;;;;;;;;5017638;28;20193;-68
2022/07/06 03:04:41;;;;;;;2.20;1.02;;;;;;;;;;5027728;28;20205;-67
2022/07/06 03:07:06;;;;;;;4.00;1.10;;;;;;;;;;5031780;28;20259;-67
2022/07/06 03:09:31;;;;;;;4.40;2.17;;;;;;;;;;5015701;28;20213;-66
2022/07/06 03:11:57;;;;;;;6.30;1.58;;;;;;;;;;5026305;28;20186;-67
2022/07/06 03:14:24;;;;;;;2.72;1.33;;;;;;;;;;5033562;28;20657;-66
2022/07/06 03:16:50;;;;;;;3.88;1.02;;;;;;;;;;5045669;28;20212;-66
2022/07/06 03:19:15;;;;;;;3.92;1.25;;;;;;;;;;5029362;28;20178;-66
2022/07/06 03:21:41;;;;;;;5.93;1.20;;;;;;;;;;5023732;28;20302;-66
2022/07/06 03:24:06;;;;;;;3.63;1.27;;;;;;;;;;5044833;28;20256;-66
2022/07/06 03:26:31;;;;;;;5.07;1.52;;;;;;;;;;5024652;28;20178;-66
2022/07/06 03:28:56;;;;;;;5.32;1.20;;;;;;;;;;5041624;28;20599;-66
2022/07/06 03:31:22;;;;;;;4.15;1.30;;;;;;;;;;5023155;28;20687;-66
2022/07/06 03:33:47;;;;;;;3.35;1.48;;;;;;;;;;5024362;28;20277;-66
2022/07/06 03:36:12;;;;;;;4.78;1.30;;;;;;;;;;5029537;28;20520;-66
2022/07/06 03:38:38;;;;;;;5.55;1.38;;;;;;;;;;5027592;28;20668;-66
2022/07/06 03:41:03;;;;;;;5.85;1.20;;;;;;;;;;5032385;28;20186;-66
2022/07/06 03:43:30;;;;;;;5.80;1.08;;;;;;;;;;5028131;28;20181;-67
2022/07/06 03:45:55;;;;;;;1.77;1.08;;;;;;;;;;5030384;28;20182;-65
2022/07/06 03:48:20;;;;;;;3.95;1.20;;;;;;;;;;5039046;28;20581;-66
2022/07/06 03:50:46;;;;;;;2.78;1.33;;;;;;;;;;5024527;28;20190;-66
2022/07/06 03:53:11;;;;;;;4.68;1.00;;;;;;;;;;5044637;28;20232;-65
2022/07/06 03:55:36;;;;;;;5.18;1.30;;;;;;;;;;5030090;28;20188;-66
2022/07/06 03:58:02;;;;;;;6.80;1.10;;;;;;;;;;5019465;28;20186;-68
2022/07/06 04:00:27;;;;;;;1.95;1.30;;;;;;;;;;5025261;28;20202;-67
2022/07/06 04:02:53;;;;;;;4.07;1.10;;;;;;;;;;5040903;28;20193;-66
2022/07/06 04:05:21;;;;;;;5.15;1.40;;;;;;;;;;5039930;28;20185;-66
2022/07/06 04:07:48;;;;;;;6.57;1.38;;;;;;;;;;5041365;28;20178;-66
2022/07/06 04:10:14;;;;;;;7.32;1.13;;;;;;;;;;5040858;28;20186;-66
2022/07/06 04:12:44;;;;;;;3.08;1.00;;;;;;;;;;5026219;28;20205;-66
2022/07/06 04:15:10;;;;;;;3.50;1.38;;;;;;;;;;5035483;28;20835;-66
2022/07/06 04:17:54;;;;;;;6.90;1.15;;;;;;;;;;5023019;28;20576;-67
2022/07/06 04:20:20;;;;;;;5.43;0.88;;;;;;;;;;5025020;28;20240;-66
2022/07/06 04:22:46;;;;;;;3.55;1.02;;;;;;;;;;5037578;28;20650;-66
2022/07/06 04:25:12;;;;;;;3.80;1.55;;;;;;;;;;5023487;28;20182;-66
2022/07/06 04:27:37;;;;;;;4.82;1.20;;;;;;;;;;5015590;28;20221;-65
2022/07/06 04:30:04;;;;;;;1.42;0.98;;;;;;;;;;5033454;28;20205;-66
2022/07/06 04:32:29;;;;;;;4.07;1.00;;;;;;;;;;5034110;28;20216;-66
2022/07/06 04:34:55;;;;;;;4.55;1.08;;;;;;;;;;5027336;28;20186;-66
2022/07/06 04:37:20;;;;;;;3.65;0.93;;;;;;;;;;5043588;28;20185;-66
2022/07/06 04:39:45;;;;;;;6.10;1.23;;;;;;;;;;5039604;28;20182;-66
2022/07/06 04:42:11;;;;;;;3.50;1.10;;;;;;;;;;5040244;28;20619;-67
2022/07/06 04:44:36;;;;;;;2.95;1.00;;;;;;;;;;5023033;28;20177;-67
2022/07/06 04:47:02;;;;;;;4.75;1.02;;;;;;;;;;5021575;28;20210;-66
2022/07/06 04:49:27;;;;;;;6.13;1.58;;;;;;;;;;5041177;28;20529;-67
2022/07/06 04:51:52;;;;;;;6.50;0.88;;;;;;;;;;5041446;28;20256;-66
2022/07/06 04:54:18;;;;;;;5.20;1.20;;;;;;;;;;5045534;28;20177;-65
2022/07/06 04:56:43;;;;;;;2.35;0.88;;;;;;;;;;5039538;28;20260;-66
2022/07/06 04:59:08;;;;;;;8.52;1.02;;;;;;;;;;5042765;28;20206;-66
2022/07/06 05:01:34;;;;;;;2.58;0.90;;;;;;;;;;5047145;28;20254;-65
2022/07/06 05:03:59;;;;;;;2.10;0.80;;;;;;;;;;5045431;28;20244;-65
2022/07/06 05:06:24;;;;;;;5.45;1.27;;;;;;;;;;5044916;28;20208;-66
2022/07/06 05:08:50;;;;;;;2.53;1.05;;;;;;;;;;5033294;28;20186;-67
2022/07/06 05:11:15;;;;;;;4.68;0.90;;;;;;;;;;5041040;28;20618;-66
2022/07/06 05:13:41;;;;;;;4.35;1.00;;;;;;;;;;5036337;28;20316;-65
2022/07/06 05:16:06;;;;;;;4.03;1.25;;;;;;;;;;5042187;28;20201;-65
2022/07/06 05:18:31;;;;;;;4.07;1.30;;;;;;;;;;5037333;28;20186;-65
2022/07/06 05:20:57;;;;;;;5.78;0.98;;;;;;;;;;5025550;28;20208;-65
2022/07/06 05:23:22;;;;;;;3.42;1.10;;;;;;;;;;5028644;28;20182;-64
2022/07/06 05:25:47;;;;;;;3.35;0.80;;;;;;;;;;5030782;28;20182;-65
2022/07/06 05:28:13;;;;;;;3.92;1.20;;;;;;;;;;5027574;28;20218;-65
2022/07/06 05:30:38;;;;;;;5.80;1.42;;;;;;;;;;5033245;28;20205;-64
2022/07/06 05:33:03;;;;;;;4.85;0.88;;;;;;;;;;5026562;28;20281;-66
2022/07/06 05:35:29;;;;;;;6.10;1.23;;;;;;;;;;5040888;28;20205;-65
2022/07/06 05:37:54;;;;;;;4.05;0.90;;;;;;;;;;5030319;28;20188;-65
2022/07/06 05:40:20;;;;;;;7.20;1.00;;;;;;;;;;5045253;28;20331;-65
2022/07/06 05:42:45;;;;;;;2.90;0.70;;;;;;;;;;5041074;28;20731;-65
2022/07/06 05:45:10;;;;;;;5.57;0.90;;;;;;;;;;5043016;28;20191;-65
2022/07/06 05:50:20;;;;;;;4.82;1.20;;;;;;;;;;5044397;28;20232;-66
2022/07/06 05:52:56;;;;;;;3.13;1.30;;;;;;;;;;5043618;28;20637;-66
2022/07/06 05:55:21;;;;;;;4.65;1.20;;;;;;;;;;5033383;28;20189;-65
2022/07/06 05:57:47;;;;;;;3.25;0.80;;;;;;;;;;5015535;28;20186;-65
2022/07/06 06:00:12;;;;;;;8.65;1.13;;;;;;;;;;5039329;28;20221;-65
2022/07/06 06:02:42;;;;;;;4.55;0.90;;;;;;;;;;5033524;28;20190;-66
2022/07/06 06:05:09;;;;;;;7.32;1.10;;;;;;;;;;5039490;28;20537;-64
2022/07/06 06:07:37;;;;;;;3.75;1.05;;;;;;;;;;5038847;28;20224;-65
2022/07/06 06:10:05;;;;;;;4.10;0.90;;;;;;;;;;5045218;28;20212;-65
2022/07/06 06:12:31;;;;;;;3.45;0.85;;;;;;;;;;5032062;28;20220;-65
2022/07/06 06:14:56;;;;;;;2.90;0.77;;;;;;;;;;5040321;28;20240;-65
2022/07/06 06:17:22;;;;;;;3.00;1.00;;;;;;;;;;5031565;28;20193;-64
2022/07/06 06:19:47;;;;;;;6.50;1.00;;;;;;;;;;5039745;28;20605;-65
2022/07/06 06:22:13;;;;;;;2.92;0.88;;;;;;;;;;5038458;28;20197;-65
2022/07/06 06:24:39;;;;;;;3.15;0.88;;;;;;;;;;5036637;28;20272;-65
2022/07/06 06:27:04;;;;;;;3.75;1.10;;;;;;;;;;5028622;28;20321;-66
2022/07/06 06:29:29;;;;;;;4.75;1.10;;;;;;;;;;5037691;28;20193;-65
2022/07/06 06:31:55;;;;;;;4.10;0.80;;;;;;;;;;5025265;28;20218;-65
2022/07/06 06:34:20;;;;;;;5.93;1.83;;;;;;;;;;5037010;28;20528;-64
2022/07/06 06:36:45;;;;;;;7.43;1.13;;;;;;;;;;5028485;28;20742;-65
2022/07/06 06:39:11;;;;;;;6.22;1.63;;;;;;;;;;5032663;28;20231;-64
2022/07/06 06:41:36;;;;;;;2.28;0.57;;;;;;;;;;5022533;28;20202;-65
2022/07/06 06:44:02;;;;;;;3.63;0.90;;;;;;;;;;5022403;28;20316;-66
2022/07/06 06:46:27;;;;;;;5.93;0.95;;;;;;;;;;5011411;28;20617;-65
2022/07/06 06:48:52;;;;;;;2.88;0.70;;;;;;;;;;5020043;28;20237;-66
2022/07/06 06:51:18;;;;;;;4.40;0.65;;;;;;;;;;5031228;28;20177;-65
2022/07/06 06:53:43;;;;;;;1.63;0.57;;;;;;;;;;5028139;28;20178;-65
2022/07/06 06:56:08;;;;;;;4.13;0.63;;;;;;;;;;5022344;28;20197;-65
2022/07/06 06:58:34;;;;;;;4.70;0.90;;;;;;;;;;5023249;28;20189;-65
2022/07/06 07:00:59;;;;;;;5.57;0.80;;;;;;;;;;5032886;28;20637;-65
2022/07/06 07:03:25;;;;;;;7.50;0.95;;;;;;;;;;5016714;28;20213;-64
2022/07/06 07:05:50;;;;;;;3.25;1.08;;;;;;;;;;5026237;28;20200;-65
2022/07/06 07:08:15;;;;;;;3.67;0.68;;;;;;;;;;5029638;28;20185;-64
2022/07/06 07:10:41;;;;;;;6.50;0.80;;;;;;;;;;5031392;28;20216;-63
2022/07/06 07:13:06;;;;;;;3.70;0.50;;;;;;;;;;5030993;28;20183;-64
2022/07/06 07:15:32;;;;;;;4.03;0.60;;;;;;;;;;5034471;28;20224;-66
2022/07/06 07:17:57;;;;;;;3.92;0.57;;;;;;;;;;5030336;28;20182;-66
2022/07/06 07:20:23;;;;;;;0.95;0.50;;;;;;;;;;5035434;28;20205;-64
2022/07/06 07:22:48;;;;;;;4.50;0.63;;;;;;;;;;5027662;28;20243;-64
2022/07/06 07:25:14;;;;;;;1.73;0.50;;;;;;;;;;5035749;28;20185;-65
2022/07/06 07:27:39;;;;;;;3.33;0.50;;;;;;;;;;5037959;28;20259;-68
2022/07/06 07:30:05;;;;;;;4.25;0.80;;;;;;;;;;5035661;28;20604;-66
2022/07/06 07:32:31;;;;;;;3.22;0.82;;;;;;;;;;5040143;28;20705;-64
2022/07/06 07:34:56;;;;;;;2.50;0.50;;;;;;;;;;5035219;28;20541;-65
2022/07/06 07:37:22;;;;;;;5.72;0.90;;;;;;;;;;5026466;28;20595;-66
2022/07/06 07:39:47;;;;;;;2.10;0.45;;;;;;;;;;5042711;28;20189;-65
2022/07/06 07:42:12;;;;;;;3.22;0.40;;;;;;;;;;5039459;28;20232;-65
2022/07/06 07:44:38;;;;;;;1.88;0.50;;;;;;;;;;5034094;28;20271;-66
2022/07/06 07:47:04;;;;;;;1.88;0.35;;;;;;;;;;5034894;28;20246;-66
2022/07/06 07:49:30;;;;;;;1.02;0.30;;;;;;;;;;5040016;28;20225;-64
2022/07/06 07:51:55;;;;;;;1.60;0.30;;;;;;;;;;5040421;28;21257;-65
2022/07/06 07:54:21;;;;;;;3.10;0.30;;;;;;;;;;5042493;28;20846;-66
2022/07/06 07:56:46;;;;;;;4.90;0.85;;;;;;;;;;5044281;28;20185;-64
2022/07/06 07:59:12;;;;;;;2.65;0.55;;;;;;;;;;5037023;28;20668;-64
2022/07/06 08:01:37;;;;;;;9.25;1.20;;;;;;;;;;5040521;28;20187;-65
2022/07/06 08:04:03;;;;;;;3.45;0.55;;;;;;;;;;5038789;28;20181;-66
2022/07/06 08:06:28;;;;;;;3.00;0.68;;;;;;;;;;5046565;28;20233;-68
2022/07/06 08:08:54;;;;;;;0.63;0.32;;;;;;;;;;5041921;28;20679;-66
2022/07/06 08:11:19;;;;;;;3.08;0.52;;;;;;;;;;5042858;28;20173;-66
2022/07/06 08:13:44;;;;;;;2.13;0.60;;;;;;;;;;5034499;28;20183;-67
2022/07/06 08:16:10;;;;;;;2.85;0.30;;;;;;;;;;5040371;28;20182;-66
2022/07/06 08:18:36;;;;;;;1.65;0.88;;;;;;;;;;5042771;28;20202;-65
2022/07/06 08:21:01;;;;;;;2.13;0.40;;;;;;;;;;5038945;28;20256;-66
2022/07/06 08:23:27;;;;;;;2.30;0.40;;;;;;;;;;5038333;28;20197;-67
2022/07/06 08:25:52;;;;;;;3.58;0.50;;;;;;;;;;5041026;28;20569;-65
2022/07/06 08:28:17;;;;;;;1.80;0.30;;;;;;;;;;5043562;28;20225;-64
2022/07/06 08:30:43;;;;;;;3.58;0.47;;;;;;;;;;5038430;28;20235;-66
2022/07/06 08:33:08;;;;;;;1.95;0.40;;;;;;;;;;5037535;28;20181;-65
2022/07/06 08:35:34;;;;;;;3.55;0.50;;;;;;;;;;5043044;28;20190;-66
2022/07/06 08:37:59;;;;;;;1.65;0.38;;;;;;;;;;5042489;28;20181;-66
2022/07/06 08:40:29;;;;;;;4.25;0.40;;;;;;;;;;5042910;28;20680;-69
2022/07/06 08:42:54;;;;;;;0.77;0.40;;;;;;;;;;5039215;28;20248;-69
2022/07/06 08:45:20;;;;;;;0.68;0.30;;;;;;;;;;5041935;28;20182;-68
2022/07/06 08:47:49;;;;;;;4.93;0.60;;;;;;;;;;5036893;28;20193;-69
2022/07/06 08:50:16;;;;;;;1.80;0.40;;;;;;;;;;5041162;28;20708;-67
2022/07/06 08:52:42;;;;;;;3.00;0.45;;;;;;;;;;5044330;28;20189;-68
2022/07/06 08:55:09;;;;;;;2.17;0.40;;;;;;;;;;5044883;28;20264;-66
2022/07/06 08:57:34;;;;;;;4.43;0.52;;;;;;;;;;5044335;28;20646;-66
2022/07/06 08:59:59;;;;;;;7.93;0.50;;;;;;;;;;5039811;28;20182;-66
2022/07/06 09:02:26;;;;;;;0.60;0.40;;;;;;;;;;5038058;28;20188;-66
2022/07/06 09:04:55;;;;;;;2.67;0.40;;;;;;;;;;5033766;28;20186;-66
2022/07/06 09:07:21;;;;;;;1.02;0.30;;;;;;;;;;5038241;28;20414;-66
2022/07/06 09:09:47;;;;;;;3.22;0.60;;;;;;;;;;5044721;28;20182;-65
2022/07/06 09:12:13;;;;;;;3.08;0.40;;;;;;;;;;5041822;28;20660;-66
2022/07/06 09:14:38;;;;;;;1.35;0.43;;;;;;;;;;5038997;28;21037;-66
2022/07/06 09:17:06;;;;;;;1.10;0.30;;;;;;;;;;5039925;28;20185;-66
2022/07/06 09:19:32;;;;;;;2.45;0.20;;;;;;;;;;5043332;28;20757;-65
2022/07/06 09:21:58;;;;;;;3.33;0.55;;;;;;;;;;5044768;28;20193;-67
2022/07/06 09:24:26;;;;;;;3.60;0.30;;;;;;;;;;5044930;28;20193;-70
2022/07/06 09:26:55;;;;;;;2.78;0.57;;;;;;;;;;5043457;28;20632;-65
2022/07/06 09:29:31;;;;;;;3.50;0.50;;;;;;;;;;5043730;28;20715;-67
2022/07/06 09:31:57;;;;;;;1.17;0.30;;;;;;;;;;5044006;28;20213;-64
2022/07/06 09:34:23;;;;;;;1.63;0.43;;;;;;;;;;5036841;28;20513;-67
2022/07/06 09:36:50;;;;;;;3.35;0.50;;;;;;;;;;5040536;28;20723;-65
2022/07/06 09:39:18;;;;;;;2.50;0.60;;;;;;;;;;5042721;28;20181;-66
2022/07/06 09:41:45;;;;;;;2.42;0.40;;;;;;;;;;5041259;28;20201;-65
2022/07/06 09:44:11;;;;;;;1.35;0.40;;;;;;;;;;5042995;28;20190;-65
2022/07/06 09:46:43;;;;;;;0.90;0.32;;;;;;;;;;5041545;28;20185;-66
2022/07/06 09:49:08;;;;;;;1.48;0.40;;;;;;;;;;5038094;28;20663;-66
2022/07/06 09:51:40;;;;;;;2.80;0.73;;;;;;;;;;5041276;28;20197;-65
2022/07/06 09:54:07;;;;;;;2.58;0.32;;;;;;;;;;5037452;28;20239;-66
2022/07/06 09:56:40;;;;;;;2.30;0.30;;;;;;;;;;5044570;28;20192;-67
2022/07/06 09:59:14;;;;;;;0.45;0.30;;;;;;;;;;5039724;28;20197;-69
2022/07/06 10:01:40;;;;;;;0.85;0.30;;;;;;;;;;5037605;28;20530;-66
2022/07/06 10:04:07;;;;;;;1.15;0.40;;;;;;;;;;5034893;28;20188;-65
2022/07/06 10:06:33;;;;;;;2.38;0.45;;;;;;;;;;5044493;28;20192;-66
2022/07/06 10:08:59;;;;;;;0.98;0.40;;;;;;;;;;5042511;28;20185;-65
2022/07/06 10:11:25;;;;;;;5.05;0.65;;;;;;;;;;5041030;28;20193;-67
2022/07/06 10:13:55;;;;;;;5.47;0.75;;;;;;;;;;5044698;28;20193;-65
2022/07/06 10:16:24;;;;;;;0.98;0.30;;;;;;;;;;5043983;28;20189;-65
2022/07/06 10:18:53;;;;;;;1.15;0.30;;;;;;;;;;5037426;28;20192;-66
2022/07/06 10:21:20;;;;;;;4.10;0.45;;;;;;;;;;5036777;28;20703;-69
2022/07/06 10:23:45;;;;;;;3.10;0.63;;;;;;;;;;5041583;28;20611;-69
2022/07/06 10:26:11;;;;;;;1.75;0.30;;;;;;;;;;5036824;28;20242;-65
2022/07/06 10:28:38;;;;;;;3.17;0.40;;;;;;;;;;5037354;28;20588;-65
2022/07/06 10:31:04;;;;;;;2.00;0.40;;;;;;;;;;5034833;28;20205;-64
2022/07/06 10:33:31;;;;;;;1.10;0.30;;;;;;;;;;5035003;28;20239;-65
2022/07/06 10:35:57;;;;;;;0.90;0.50;;;;;;;;;;5039076;28;20227;-64
2022/07/06 10:38:33;;;;;;;2.53;0.40;;;;;;;;;;5040755;28;20197;-66
2022/07/06 10:41:07;;;;;;;1.50;0.40;;;;;;;;;;5034082;28;20200;-66
2022/07/06 10:43:35;;;;;;;4.03;0.35;;;;;;;;;;5038406;28;20614;-65
2022/07/06 10:46:06;;;;;;;0.65;0.30;;;;;;;;;;5040245;28;20685;-65
2022/07/06 10:48:38;;;;;;;1.70;0.65;;;;;;;;;;5037858;28;20603;-64
2022/07/06 10:51:05;;;;;;;1.95;0.50;;;;;;;;;;5042764;28;20618;-66
2022/07/06 10:53:33;;;;;;;2.67;0.35;;;;;;;;;;5041961;28;20659;-65
2022/07/06 10:56:00;;;;;;;6.03;0.63;;;;;;;;;;5034739;28;20186;-64
2022/07/06 10:58:52;;;;;;;0.82;0.30;;;;;;;;;;5029741;28;20196;-66
2022/07/06 11:01:20;;;;;;;1.95;0.40;;;;;;;;;;5031772;28;20659;-66
2022/07/06 11:04:05;;;;;;;2.38;0.35;;;;;;;;;;5034213;28;20265;-68
2022/07/06 11:06:37;;;;;;;0.90;0.35;;;;;;;;;;5035790;28;20192;-65
2022/07/06 11:09:07;;;;;;;1.00;0.30;;;;;;;;;;5036764;28;20192;-64
2022/07/06 11:11:32;;;;;;;1.67;0.43;;;;;;;;;;5032066;28;20174;-64
2022/07/06 11:14:02;;;;;;;2.67;0.40;;;;;;;;;;5037916;28;20181;-65
2022/07/06 11:16:36;;;;;;;2.70;0.32;;;;;;;;;;5037518;28;20182;-65
2022/07/06 11:19:14;;;;;;;1.48;0.40;;;;;;;;;;5035395;28;20513;-66
2022/07/06 11:21:43;;;;;;;2.33;0.40;;;;;;;;;;5036621;28;20232;-65
2022/07/06 11:24:11;;;;;;;2.20;0.40;;;;;;;;;;5024169;28;20501;-65
2022/07/06 11:26:37;;;;;;;3.85;0.40;;;;;;;;;;5038314;28;20192;-66
2022/07/06 11:29:07;;;;;;;1.70;0.35;;;;;;;;;;5032190;28;20185;-65
2022/07/06 11:31:35;;;;;;;5.97;0.68;;;;;;;;;;5035934;28;20631;-65
2022/07/06 11:34:02;;;;;;;6.53;0.60;;;;;;;;;;5038033;28;20180;-66
2022/07/06 11:36:27;;;;;;;4.85;0.63;;;;;;;;;;5041007;28;20556;-65
2022/07/06 11:38:52;;;;;;;2.15;0.38;;;;;;;;;;5041525;28;20220;-65
2022/07/06 11:41:18;;;;;;;1.58;0.40;;;;;;;;;;5037123;28;20561;-66
2022/07/06 11:43:45;;;;;;;1.73;0.38;;;;;;;;;;5034945;28;20191;-68
2022/07/06 11:46:29;;;;;;;2.53;0.60;;;;;;;;;;5017045;28;20190;-70
2022/07/06 11:48:57;;;;;;;2.78;0.50;;;;;;;;;;5019756;28;20182;-68
2022/07/06 11:51:25;;;;;;;0.68;0.30;;;;;;;;;;5022361;28;20177;-68
2022/07/06 11:53:53;;;;;;;2.92;0.35;;;;;;;;;;5020392;28;20380;-68
2022/07/06 11:56:21;;;;;;;2.10;0.63;;;;;;;;;;5034687;28;20189;-68
2022/07/06 11:58:49;;;;;;;0.85;0.20;;;;;;;;;;5024655;28;20268;-65
2022/07/06 12:01:15;;;;;;;1.55;0.40;;;;;;;;;;5037223;28;20782;-66
2022/07/06 12:03:41;;;;;;;0.60;0.25;;;;;;;;;;5022245;28;20273;-67
2022/07/06 12:06:17;;;;;;;3.60;1.13;;;;;;;;;;5018496;28;20182;-66
2022/07/06 12:08:45;;;;;;;2.30;0.30;;;;;;;;;;5020131;28;20187;-64
2022/07/06 12:11:10;;;;;;;1.13;0.32;;;;;;;;;;5025715;28;20284;-65
2022/07/06 12:13:39;;;;;;;2.90;0.40;;;;;;;;;;5020447;28;20264;-64
2022/07/06 12:16:17;;;;;;;2.58;0.40;;;;;;;;;;5020917;28;20191;-65
2022/07/06 12:18:45;;;;;;;1.17;0.40;;;;;;;;;;5018090;28;20662;-66
2022/07/06 12:21:14;;;;;;;1.48;0.55;;;;;;;;;;5019452;28;20200;-66
2022/07/06 12:23:50;;;;;;;1.88;0.30;;;;;;;;;;5030138;28;20239;-65
2022/07/06 12:26:19;;;;;;;1.13;0.40;;;;;;;;;;5025490;28;20182;-66
2022/07/06 12:28:45;;;;;;;2.05;0.40;;;;;;;;;;5028226;28;20225;-64
2022/07/06 12:31:11;;;;;;;1.15;0.40;;;;;;;;;;5025161;28;20301;-63
2022/07/06 12:33:36;;;;;;;1.65;0.45;;;;;;;;;;5038049;28;20268;-64
2022/07/06 12:36:13;;;;;;;0.70;0.30;;;;;;;;;;5033004;28;20183;-65
2022/07/06 12:38:45;;;;;;;2.08;0.30;;;;;;;;;;5031685;28;20277;-64
2022/07/06 12:41:11;;;;;;;2.45;0.30;;;;;;;;;;5031238;28;20202;-64
2022/07/06 12:43:41;;;;;;;1.25;0.30;;;;;;;;;;5011724;28;20245;-63
2022/07/06 12:46:45;;;;;;;2.58;0.40;;;;;;;;;;5019448;28;20271;-64
2022/07/06 12:49:13;;;;;;;1.98;0.70;;;;;;;;;;5016286;28;20862;-63
2022/07/06 12:52:08;;;;;;;1.35;0.65;;;;;;;;;;5020131;28;20268;-64
2022/07/06 12:54:39;;;;;;;2.72;0.52;;;;;;;;;;5020791;28;20575;-64
2022/07/06 12:57:13;;;;;;;0.68;0.40;;;;;;;;;;5019493;28;20178;-63
2022/07/06 12:59:41;;;;;;;2.58;1.08;;;;;;;;;;5021505;28;20241;-64
2022/07/06 13:02:09;;;;;;;3.03;0.63;;;;;;;;;;5013318;28;20599;-64
2022/07/06 13:04:36;;;;;;;2.42;0.25;;;;;;;;;;5020978;28;20645;-64
2022/07/06 13:07:03;;;;;;;6.72;0.70;;;;;;;;;;5029638;28;20186;-65
2022/07/06 13:09:29;;;;;;;3.15;0.50;;;;;;;;;;5028176;28;20233;-64
2022/07/06 13:11:54;;;;;;;2.08;0.45;;;;;;;;;;5014898;28;20194;-66
2022/07/06 13:14:20;;;;;;;4.15;0.57;;;;;;;;;;5024132;28;20226;-65
2022/07/06 13:16:46;;;;;;;0.63;0.45;;;;;;;;;;5016250;28;20227;-64
2022/07/06 13:19:12;;;;;;;3.10;0.47;;;;;;;;;;5025464;28;20193;-65
2022/07/06 13:21:38;;;;;;;2.83;0.50;;;;;;;;;;5031220;28;20198;-66
2022/07/06 13:24:04;;;;;;;1.40;0.40;;;;;;;;;;5032273;28;20208;-63
2022/07/06 13:26:33;;;;;;;2.60;0.45;;;;;;;;;;5027556;28;20217;-63
2022/07/06 13:28:59;;;;;;;0.75;0.40;;;;;;;;;;5024960;28;20511;-65
2022/07/06 13:31:24;;;;;;;3.35;1.05;;;;;;;;;;5024578;28;20198;-66
2022/07/06 13:33:50;;;;;;;2.10;0.55;;;;;;;;;;5028139;28;20181;-65
2022/07/06 13:36:15;;;;;;;2.67;0.50;;;;;;;;;;5026605;28;20189;-65
2022/07/06 13:38:41;;;;;;;1.90;0.55;;;;;;;;;;5020795;28;20284;-64
2022/07/06 13:41:06;;;;;;;2.85;0.50;;;;;;;;;;5024296;28;20191;-64
2022/07/06 13:43:35;;;;;;;3.72;0.82;;;;;;;;;;5025667;28;20186;-64
2022/07/06 13:46:03;;;;;;;1.10;0.50;;;;;;;;;;5024665;28;20225;-65
2022/07/06 13:48:28;;;;;;;3.58;0.50;;;;;;;;;;5021453;28;20244;-67
2022/07/06 13:50:53;;;;;;;2.80;0.40;;;;;;;;;;5028122;28;20285;-65
2022/07/06 13:53:19;;;;;;;4.45;0.75;;;;;;;;;;5022405;28;20194;-65
2022/07/06 13:55:44;;;;;;;3.25;0.50;;;;;;;;;;5017899;28;20263;-65
2022/07/06 13:58:09;;;;;;;4.82;1.05;;;;;;;;;;5021307;28;20431;-66
2022/07/06 14:00:35;;;;;;;3.40;0.75;;;;;;;;;;5022000;28;20874;-65
2022/07/06 14:03:00;;;;;;;1.48;0.50;;;;;;;;;;5021854;28;20220;-65
2022/07/06 14:05:28;;;;;;;2.20;0.80;;;;;;;;;;5032454;28;20196;-65
2022/07/06 14:07:53;;;;;;;1.42;0.60;;;;;;;;;;5035757;28;20195;-65
2022/07/06 14:10:19;;;;;;;3.30;0.70;;;;;;;;;;5028183;28;20174;-67
2022/07/06 14:12:44;;;;;;;2.17;0.57;;;;;;;;;;5018052;28;20189;-64
2022/07/06 14:15:09;;;;;;;4.70;0.70;;;;;;;;;;5031904;28;20239;-65
2022/07/06 14:17:35;;;;;;;0.82;0.60;;;;;;;;;;5028576;28;20197;-64
2022/07/06 14:20:00;;;;;;;1.85;0.70;;;;;;;;;;5027983;28;20182;-65
2022/07/06 14:22:25;;;;;;;5.15;0.80;;;;;;;;;;5021501;28;20255;-65
2022/07/06 14:24:51;;;;;;;1.15;0.40;;;;;;;;;;5025951;28;20193;-64
2022/07/06 14:27:16;;;;;;;1.25;0.43;;;;;;;;;;5035272;28;20217;-65
2022/07/06 14:29:41;;;;;;;1.85;0.50;;;;;;;;;;5025661;28;20606;-65
2022/07/06 14:32:07;;;;;;;1.05;0.50;;;;;;;;;;5042985;28;20209;-65
2022/07/06 14:34:33;;;;;;;1.55;0.50;;;;;;;;;;5033532;28;20210;-64
2022/07/06 14:36:59;;;;;;;2.25;0.43;;;;;;;;;;5026743;28;20200;-65
2022/07/06 14:39:24;;;;;;;2.38;0.57;;;;;;;;;;5027478;28;20661;-64
2022/07/06 14:41:49;;;;;;;1.75;0.50;;;;;;;;;;5032455;28;20232;-65
2022/07/06 14:44:15;;;;;;;2.65;0.40;;;;;;;;;;5036534;28;20192;-65